This is the latest recevied weather packets stored in our database for station/object WX5II-2. If no packets are shown the sender has not sent any weather packets the latest 10 day(s).
| Time | Temp. | Humidity | Pressure | Rain* | Wind** | Luminosity | Snow |
|---|---|---|---|---|---|---|---|
| 1777743545 | 21.11° C | 33% | 1022.4 hPa | 0 mm | 0 m/s | - | - |
| 1777742921 | 20.56° C | 33% | 1022.4 hPa | 0 mm | 0 m/s | - | - |
| 1777741675 | 20.56° C | 34% | 1022.4 hPa | 0 mm | 0 m/s | - | - |
| 1777741052 | 20.56° C | 34% | 1022.4 hPa | 0 mm | 0 m/s | - | - |
| 1777740428 | 20° C | 34% | 1022.4 hPa | 0 mm | 0 m/s | - | - |
| 1777739805 | 20° C | 35% | 1022.4 hPa | 0 mm | 0 m/s | - | - |
| 1777739182 | 20° C | 34% | 1022.4 hPa | 0 mm | 0 m/s | - | - |
| 1777738559 | 19.44° C | 35% | 1022.4 hPa | 0 mm | 0 m/s | - | - |
| 1777737936 | 19.44° C | 35% | 1022.4 hPa | 0 mm | 0 m/s | - | - |
| 1777737313 | 18.89° C | 36% | 1022.4 hPa | 0 mm | 0 m/s | - | - |
| 1777736690 | 18.33° C | 37% | 1022.4 hPa | 0 mm | 0 m/s | - | - |
| 1777736067 | 18.33° C | 36% | 1022.4 hPa | 0 mm | 0 m/s | - | - |
| 1777735444 | 17.78° C | 36% | 1022.4 hPa | 0 mm | 0 m/s | - | - |
| 1777734822 | 17.78° C | 36% | 1022.4 hPa | 0 mm | 0 m/s | - | - |
| 1777734200 | 17.22° C | 36% | 1022.4 hPa | 0 mm | 0 m/s | - | - |
| 1777732326 | 16.11° C | 42% | 1022.4 hPa | 0 mm | 0 m/s | - | - |
| 1777731703 | 16.11° C | 44% | 1022.4 hPa | 0 mm | 0 m/s | - | - |
| 1777731081 | 15.56° C | 44% | 1022.4 hPa | 0 mm | 0 m/s | - | - |
| 1777730458 | 15° C | 48% | 1022.4 hPa | 0 mm | 0 m/s | - | - |
| 1777729835 | 14.44° C | 50% | 1022.4 hPa | 0 mm | 0 m/s | - | - |
| 1777729213 | 13.33° C | 58% | 1022.4 hPa | 0 mm | 0 m/s | - | - |
| 1777728590 | 12.78° C | 65% | 1022.4 hPa | 0 mm | 0 m/s | - | - |
| 1777727969 | 11.67° C | 68% | 1022.4 hPa | 0 mm | 0 m/s | - | - |
| 1777727342 | 11.11° C | 70% | 1022.4 hPa | 0 mm | 0 m/s | - | - |
| 1777726720 | 11.11° C | 73% | 1022.4 hPa | 0 mm | 0 m/s | - | - |
* Rain latest hour (hover to see other rain measurements)
** Current wind speed in m/s (hover to see current wind gust speed)